createdAt,value
2022-08-22T04:02:44.509Z,97.55
2022-08-22T04:05:59.521Z,97.55
2022-08-22T04:09:29.191Z,98.98
2022-08-22T04:13:09.031Z,99.35
2022-08-22T04:16:54.235Z,97.97
2022-08-22T04:20:41.482Z,96.72
2022-08-22T04:23:49.815Z,94.39
2022-08-22T04:27:02.229Z,92.94
2022-08-22T04:30:49.870Z,92.45
2022-08-22T04:34:22.484Z,92.02
2022-08-22T04:37:27.879Z,92.41
2022-08-22T04:40:38.919Z,92.63
2022-08-22T04:43:49.302Z,92.09
2022-08-22T04:47:00.794Z,90.87
2022-08-22T04:50:21.487Z,91.17
2022-08-22T04:54:06.051Z,91.89
2022-08-22T04:57:27.146Z,91.63
2022-08-22T05:00:49.057Z,90.12
2022-08-22T05:03:57.875Z,90.78
2022-08-22T05:07:15.940Z,90.89
2022-08-22T05:10:24.267Z,90.85
2022-08-22T05:14:05.261Z,90.40
2022-08-22T05:17:10.582Z,89.73
2022-08-22T05:20:17.515Z,91.17
2022-08-22T05:23:27.391Z,90.65
2022-08-22T05:26:37.731Z,88.58
2022-08-22T05:29:44.164Z,86.78
2022-08-22T05:32:55.518Z,86.12
2022-08-22T05:36:00.929Z,86.86
2022-08-22T05:39:12.006Z,87.47
2022-08-22T05:42:31.484Z,85.94
2022-08-22T05:45:36.277Z,85.87
2022-08-22T05:48:43.726Z,86.66
2022-08-22T05:52:10.898Z,85.64
2022-08-22T05:55:31.209Z,84.49
2022-08-22T05:58:48.291Z,84.54
2022-08-22T06:02:08.799Z,83.40
2022-08-22T06:05:12.412Z,83.55
2022-08-22T06:08:23.853Z,81.74
2022-08-22T06:11:52.140Z,81.65
2022-08-22T06:15:11.565Z,83.48
2022-08-22T06:18:21.007Z,83.34
2022-08-22T06:21:35.439Z,83.34
2022-08-22T06:24:43.235Z,82.95
2022-08-22T06:27:50.906Z,81.67
2022-08-22T06:30:56.414Z,81.35
2022-08-22T06:34:12.199Z,80.49
2022-08-22T06:37:31.563Z,81.52
2022-08-22T06:40:34.815Z,80.90
2022-08-22T06:43:43.050Z,81.68
2022-08-22T06:46:48.070Z,79.91
2022-08-22T06:49:59.091Z,80.47
2022-08-22T06:53:11.443Z,79.68
2022-08-22T06:56:21.734Z,79.38
2022-08-22T06:59:27.592Z,76.31
2022-08-22T07:02:36.700Z,74.13
2022-08-22T07:05:41.704Z,73.89
2022-08-22T07:08:45.218Z,73.04
2022-08-22T07:11:48.957Z,73.14
2022-08-22T07:14:54.354Z,72.54
2022-08-22T07:18:00.332Z,72.28
2022-08-22T07:21:04.762Z,69.27
2022-08-22T07:24:08.035Z,72.70
2022-08-22T07:27:27.543Z,70.54
2022-08-22T07:30:54.165Z,68.98
2022-08-22T07:34:13.290Z,71.21
2022-08-22T07:37:55.450Z,71.48
2022-08-22T07:41:22.885Z,74.43
2022-08-22T07:44:32.690Z,75.16
2022-08-22T07:48:08.874Z,75.65
2022-08-22T07:51:17.577Z,74.83
2022-08-22T07:54:45.451Z,75.03
2022-08-22T07:57:57.986Z,76.26
2022-08-22T08:01:01.941Z,76.08
2022-08-22T08:04:15.464Z,76.94
2022-08-22T08:07:22.373Z,78.24
2022-08-22T08:10:35.347Z,79.17
2022-08-22T08:13:42.155Z,79.15
2022-08-22T08:17:17.508Z,81.10
2022-08-22T08:20:22.934Z,80.69
2022-08-22T08:23:30.046Z,83.03
2022-08-22T08:27:07.409Z,84.53
2022-08-22T08:30:44.943Z,85.44
2022-08-22T08:33:50.280Z,83.11
2022-08-22T08:37:01.231Z,85.17
2022-08-22T08:40:16.662Z,83.34
2022-08-22T08:43:42.334Z,80.67
2022-08-22T08:46:58.333Z,81.26
2022-08-22T08:50:10.276Z,84.36
2022-08-22T08:53:29.288Z,82.72
2022-08-22T08:56:38.230Z,78.05
2022-08-22T09:00:05.194Z,78.10
2022-08-22T09:03:35.419Z,76.69
2022-08-22T09:06:52.912Z,74.06
2022-08-22T09:10:19.581Z,72.72
2022-08-22T09:13:52.310Z,72.46
2022-08-22T09:17:17.275Z,69.98
2022-08-22T09:20:39.758Z,68.96
2022-08-22T09:23:54.530Z,67.15
2022-08-22T09:27:31.398Z,68.38
2022-08-22T09:34:34.669Z,65.80
2022-08-22T09:37:57.570Z,65.31
2022-08-22T09:40:16.007Z,67.82
2022-08-22T09:41:18.634Z,65.02
2022-08-22T09:44:45.073Z,63.92
2022-08-22T09:48:09.668Z,65.24
2022-08-22T09:51:32.349Z,65.83
2022-08-22T09:54:44.615Z,65.81
2022-08-22T09:57:59.895Z,66.68
2022-08-22T10:01:15.264Z,66.41
2022-08-22T10:04:23.911Z,67.05
2022-08-22T10:07:35.278Z,69.76
2022-08-22T10:10:46.307Z,70.13
2022-08-22T10:14:11.228Z,68.61
2022-08-22T10:17:31.364Z,66.93
2022-08-22T10:20:49.792Z,65.67
2022-08-22T10:24:36.580Z,69.18
2022-08-22T10:27:55.164Z,67.88
2022-08-22T10:31:30.167Z,65.64
2022-08-22T10:34:44.553Z,63.74
2022-08-22T10:37:59.442Z,63.89
2022-08-22T10:41:09.235Z,63.44
2022-08-22T10:44:21.636Z,62.62
2022-08-22T10:47:38.607Z,62.58
2022-08-22T10:50:47.713Z,61.39
2022-08-22T10:54:32.629Z,61.23
2022-08-22T10:58:14.059Z,61.85
2022-08-22T11:01:37.617Z,61.20
2022-08-22T11:04:50.289Z,60.75
2022-08-22T11:08:11.527Z,59.47
2022-08-22T11:11:22.677Z,57.36
2022-08-22T11:14:42.408Z,56.53
2022-08-22T11:18:20.426Z,55.73
2022-08-22T11:21:36.379Z,57.83
2022-08-22T11:25:06.329Z,58.12
2022-08-22T11:28:17.641Z,58.67
2022-08-22T11:31:36.461Z,59.99
2022-08-22T11:35:31.600Z,59.63
2022-08-22T11:38:53.671Z,59.26
2022-08-22T11:42:21.980Z,57.77
2022-08-22T11:45:31.208Z,57.29
2022-08-22T11:48:58.695Z,56.25
2022-08-22T11:52:37.086Z,56.75
2022-08-22T11:55:58.646Z,56.19
2022-08-22T11:59:29.690Z,53.36
2022-08-22T12:03:05.842Z,54.01
2022-08-22T12:06:41.724Z,54.73
2022-08-22T12:10:13.735Z,54.01
2022-08-22T12:13:34.912Z,54.30
2022-08-22T12:16:59.241Z,54.84
2022-08-22T12:20:17.034Z,54.62
2022-08-22T12:23:22.967Z,54.48
2022-08-22T12:27:28.434Z,54.92
2022-08-22T12:30:35.120Z,54.32
2022-08-22T12:33:50.451Z,54.86
2022-08-22T12:37:10.280Z,56.59
2022-08-22T12:40:43.804Z,56.29
2022-08-22T12:44:05.045Z,56.99
2022-08-22T12:47:31.907Z,56.37
2022-08-22T12:50:51.743Z,59.14
2022-08-22T12:54:18.848Z,59.85
2022-08-22T12:57:34.822Z,60.13
2022-08-22T13:00:47.278Z,60.52
2022-08-22T13:04:19.335Z,61.18
2022-08-22T13:07:40.687Z,61.17
2022-08-22T13:10:58.207Z,63.28
2022-08-22T13:14:02.407Z,64.77
2022-08-22T13:17:24.648Z,64.91
2022-08-22T13:20:33.658Z,63.86
2022-08-22T13:23:45.155Z,63.52
2022-08-22T13:27:00.242Z,63.45
2022-08-22T13:30:18.718Z,63.36
2022-08-22T13:33:35.508Z,62.68
2022-08-22T13:36:51.613Z,62.16
2022-08-22T13:40:01.848Z,62.67
2022-08-22T13:43:12.399Z,61.81
2022-08-22T13:46:23.315Z,61.46
2022-08-22T13:49:49.019Z,60.79
2022-08-22T13:53:08.037Z,61.08
2022-08-22T13:56:20.055Z,60.76
2022-08-22T13:59:51.507Z,61.63
2022-08-22T14:02:59.849Z,61.28
2022-08-22T14:06:35.220Z,61.33
2022-08-22T14:09:55.777Z,61.92
2022-08-22T14:12:58.434Z,62.41
2022-08-22T14:16:04.112Z,61.07
2022-08-22T14:19:14.648Z,62.58
2022-08-22T14:22:31.916Z,63.60
2022-08-22T14:25:40.251Z,63.41
2022-08-22T14:28:43.514Z,63.09
2022-08-22T14:32:01.899Z,62.50
2022-08-22T14:35:37.818Z,63.50
2022-08-22T14:38:48.246Z,62.99
2022-08-22T14:41:58.620Z,63.28
2022-08-22T14:45:24.942Z,64.63
2022-08-22T14:48:40.678Z,67.26
2022-08-22T14:51:58.012Z,68.27
2022-08-22T14:55:11.911Z,68.24
2022-08-22T14:58:18.776Z,69.97
2022-08-22T15:01:33.601Z,68.71
2022-08-22T15:04:40.655Z,69.24
2022-08-22T15:07:54.689Z,70.75
2022-08-22T15:11:27.302Z,71.19
2022-08-22T15:14:40.296Z,71.35
2022-08-22T15:17:50.840Z,71.24
2022-08-22T15:21:24.981Z,70.37
2022-08-22T15:24:28.464Z,70.75
2022-08-22T15:27:34.327Z,71.11
2022-08-22T15:30:44.368Z,70.58
2022-08-22T15:33:48.530Z,71.73
2022-08-22T15:37:18.289Z,71.26
2022-08-22T15:40:47.779Z,71.36
2022-08-22T15:43:53.856Z,71.33
2022-08-22T15:47:01.099Z,72.25
